• Join FlightAware (Why Join?)
  • Login
  • US Flag 
02:30PM EDT


 

Airport Tracker/Info


-or-


 

Live Flight TrackerFlight Track Log ✈ ASQ5685 ✈ 26-Sep-2013 ✈ KATL - KIAD

Flight Track Log - Related Links

Times and Time Zones

All times are in EDT time to prevent confusion due to time zone crossing. See the ASQ5685 flight status page for this flight to view local times or setup timezone preferences in your user account.

Time Position Orientation Groundspeed Altitude Reporting Facility
EDT Latitude Longitude Course Direction KTS MPH feet Rate Location/Type
09:38AM 33.6333 -84.4000 72° East 160 184 2,000  Level Atlanta TRACON
09:39AM 33.6333 -84.3333 90° East 240 276 3,000 1,980 Climbing Atlanta TRACON
09:40AM 33.6333 -84.2500 90° East 260 299 6,000 2,520 Climbing Atlanta TRACON
09:41AM 33.8702 -84.1504 54° Northeast  Level Estimated
09:41AM 33.6333 -84.1500 90° East 284 327 8,100  Level Atlanta TRACON
09:42AM 33.9479 -84.0575 48° Northeast  Level Estimated
09:42AM 33.6628 -84.0661 67° East 309 356 10,400  Level Atlanta Center
09:43AM 34.0255 -83.9645 53° Northeast  Level Estimated
09:43AM 33.7128 -83.9964 49° Northeast 290 334 11,400  Level Atlanta Center
09:44AM 34.0588 -83.8388 72° East  Level FlightAware Approximate
09:44AM 33.7753 -83.9164 47° Northeast 313 360 12,600  Level Atlanta Center
09:45AM 33.8400 -83.8336 47° Northeast 331 381 13,800 1,080 Climbing Atlanta Center
09:46AM 33.9086 -83.7408 48° Northeast 348 400 14,800 960 Climbing Atlanta Center
09:47AM 33.9731 -83.6456 51° Northeast 359 413 15,800 1,020 Climbing Atlanta Center
09:48AM 34.0353 -83.5475 53° Northeast 367 422 16,900 1,020 Climbing Atlanta Center
09:49AM 34.0975 -83.4492 53° Northeast 367 422 17,900 960 Climbing Atlanta Center
09:50AM 34.1597 -83.3508 53° Northeast 367 422 18,900 960 Climbing Atlanta Center
09:51AM 34.2278 -83.2397 53° Northeast 367 422 19,900 960 Climbing Atlanta Center
09:52AM 34.2939 -83.1336 53° Northeast 367 422 20,900 900 Climbing Atlanta Center
09:54AM 34.3765 -82.9961 54° Northeast  Level FlightAware Approximate
09:54AM 34.4111 -82.9258 54° Northeast 370 426 22,700  Level Atlanta Center
09:55AM 34.4811 -82.8267 49° Northeast 383 441 23,500 720 Climbing Atlanta Center
09:56AM 34.5469 -82.7247 52° Northeast 388 447 24,200 660 Climbing Atlanta Center
09:57AM 34.6167 -82.6203 51° Northeast 388 447 24,900 600 Climbing Atlanta Center
09:58AM 34.6700 -82.5283 55° Northeast 388 447 25,500 600 Climbing Atlanta Center
09:59AM 34.7353 -82.4236 53° Northeast 388 447 26,100 600 Climbing Atlanta Center
10:00AM 34.8006 -82.3136 54° Northeast 388 447 26,700 600 Climbing Atlanta Center
10:01AM 34.8658 -82.2086 53° Northeast 388 447 27,300 600 Climbing Atlanta Center
10:02AM 34.9331 -82.0981 53° Northeast 388 447 27,900 600 Climbing Atlanta Center
10:03AM 35.0061 -81.9822 52° Northeast 394 453 28,500 600 Climbing Atlanta Center
10:04AM 35.0689 -81.8664 56° Northeast 394 453 29,100 540 Climbing Atlanta Center
10:05AM 35.1294 -81.7531 57° Northeast 399 459 29,600 480 Climbing Atlanta Center
10:06AM 35.1919 -81.6344 57° Northeast 399 459 30,100 480 Climbing Atlanta Center
10:07AM 35.2500 -81.5183 58° Northeast 404 465 30,600 420 Climbing Atlanta Center
10:08AM 35.3103 -81.4019 58° Northeast 404 465 31,000 180 Climbing Atlanta Center
10:09AM 35.3722 -81.2828 57° Northeast 404 465 31,000  Level Atlanta Center
10:10AM 35.4361 -81.1558 58° Northeast 420 483 31,000  Level Atlanta Center
10:11AM 35.5019 -81.0311 57° Northeast 429 494 31,000  Level Atlanta Center
10:12AM 35.5697 -80.9061 56° Northeast 435 501 31,000  Level Atlanta Center
10:13AM 35.6372 -80.7756 58° Northeast 441 507 31,000  Level Atlanta Center
10:14AM 35.7025 -80.6453 58° Northeast 441 507 31,000  Level Atlanta Center
10:15AM 35.7719 -80.5169 56° Northeast 451 519 31,000  Level Atlanta Center
10:16AM 35.8372 -80.3886 58° Northeast 451 519 31,000  Level Atlanta Center
10:19AM 35.9922 -80.0872 57° Northeast 445 512 31,000  Level Washington Center
10:20AM 36.0597 -79.9575 57° Northeast 440 506 31,000  Level Washington Center
10:21AM 36.1289 -79.8328 56° Northeast 440 506 31,000  Level Washington Center
10:22AM 36.2000 -79.7078 55° Northeast 449 517 31,000 -360 Level Washington Center
10:23AM 36.2733 -79.5803 54° Northeast 449 517 30,400 -720 Descending Washington Center
10:24AM 36.3422 -79.4497 57° Northeast 449 517 29,600 -900 Descending Washington Center
10:25AM 36.4172 -79.3192 54° Northeast 449 517 28,700 -900 Descending Washington Center
10:26AM 36.4814 -79.2008 56° Northeast 454 522 27,800 -900 Descending Washington Center
10:27AM 36.5581 -79.0750 53° Northeast 454 522 27,000 -900 Descending Washington Center
10:28AM 36.6286 -78.9461 56° Northeast 449 517 26,100 -1,020 Descending Washington Center
10:29AM 36.7056 -78.7992 57° Northeast 454 522 25,000 -600 Descending Washington Center
10:30AM 36.7778 -78.6700 55° Northeast 454 522 25,000 -120 Level Washington Center
10:31AM 36.8458 -78.5456 56° Northeast 448 516 24,800 -360 Descending Washington Center
10:32AM 36.9003 -78.4489 55° Northeast 406 467 24,300 -540 Descending Washington Center
10:33AM 36.9547 -78.3494 56° Northeast 367 422 23,800 -540 Descending Washington Center
10:34AM 37.0069 -78.2500 57° Northeast 350 403 23,300 -540 Descending Washington Center
10:35AM 37.0775 -78.1742 41° Northeast 339 390 22,800 -540 Descending Washington Center
10:36AM 37.1558 -78.1169 30° Northeast 334 384 22,300 -540 Descending Washington Center
10:37AM 37.2344 -78.0569 31° Northeast 329 379 21,800 -540 Descending Washington Center
10:38AM 37.3128 -77.9969 31° Northeast 329 379 21,300 -420 Descending Washington Center
10:39AM 37.3933 -77.9342 32° Northeast 329 379 21,000 -180 Descending Washington Center
10:40AM 37.4717 -77.8711 33° Northeast 329 379 21,000  Level Washington Center
10:41AM 37.5542 -77.8133 29° Northeast 329 379 21,000  Level Washington Center
10:42AM 37.6383 -77.7633 25° Northeast 329 379 21,000 -300 Level Washington Center
10:43AM 37.7269 -77.7133 24° Northeast 329 379 20,400 -1,380 Descending Washington Center
10:44AM 37.8114 -77.6631 25° Northeast 329 379 18,300 -2,100 Descending Washington Center
10:45AM 37.8933 -77.6153 25° Northeast 329 379 16,300 -1,980 Descending Washington Center
10:46AM 37.9714 -77.5672 26° Northeast 318 366 14,400 -1,800 Descending Washington Center
10:47AM 38.0450 -77.5269 23° Northeast 308 354 12,700 -1,620 Descending Washington Center
10:48AM 38.1208 -77.4817 25° Northeast 297 342 11,200 -1,380 Descending Washington Center
10:49AM 38.1944 -77.4386 25° Northeast 297 342 10,000 -720 Descending Washington Center
10:50AM 38.2678 -77.4244 North 285 328 9,900 -360 Descending Washington Center
10:51AM 38.3378 -77.4686 334° Northwest 257 296 9,300 -600 Descending Washington Center
10:52AM 38.4128 -77.4731 357° North 257 296 8,700 -720 Descending Washington Center
10:53AM 38.4881 -77.4697 North 257 296 7,900 -840 Descending Washington Center
10:54AM 38.5653 -77.4689 360° North 257 296 7,100 -1,080 Descending Washington Center
10:55AM 38.6500 -77.4667 North 262 302 5,800 -1,200 Descending Potomac TRACON
10:56AM 38.7167 -77.4667 360° North 248 285 4,700 -1,260 Descending Potomac TRACON
10:57AM 38.7833 -77.4667 360° North 252 290 3,400 -1,080 Descending Potomac TRACON
10:58AM 38.8500 -77.4667 360° North 212 244 2,700 -960 Descending Potomac TRACON
10:59AM 38.9000 -77.4667 360° North 150 173 1,500 -1,140 Descending Potomac TRACON
10:59AM 38.9333 -77.4667 360° North 136 157 600 -1,020 Descending Potomac TRACON